createdAt,value
2018-07-17T00:00:19.923Z,99.99
2018-07-17T00:01:19.712Z,99.99
2018-07-17T00:02:19.970Z,99.99
2018-07-17T00:03:19.692Z,99.99
2018-07-17T00:04:19.952Z,99.99
2018-07-17T00:05:19.672Z,99.99
2018-07-17T00:06:19.662Z,99.99
2018-07-17T00:07:19.650Z,99.99
2018-07-17T00:08:19.645Z,99.99
2018-07-17T00:09:19.895Z,99.99
2018-07-17T00:10:19.620Z,99.99
2018-07-17T00:11:19.876Z,99.99
2018-07-17T00:12:19.600Z,99.99
2018-07-17T00:13:19.855Z,99.99
2018-07-17T00:14:19.587Z,99.99
2018-07-17T00:15:19.568Z,99.99
2018-07-17T00:16:19.828Z,99.99
2018-07-17T00:17:19.815Z,99.99
2018-07-17T00:18:19.803Z,99.99
2018-07-17T00:19:19.528Z,99.99
2018-07-17T00:20:19.520Z,99.99
2018-07-17T00:21:19.513Z,99.99
2018-07-17T00:22:19.764Z,99.99
2018-07-17T00:23:19.758Z,99.99
2018-07-17T00:24:19.745Z,99.99
2018-07-17T00:25:19.740Z,99.99
2018-07-17T00:26:19.726Z,99.99
2018-07-17T00:27:19.717Z,99.25
2018-07-17T00:28:19.441Z,98.77
2018-07-17T00:29:19.695Z,98.58
2018-07-17T00:30:19.425Z,98.68
2018-07-17T00:31:19.410Z,98.96
2018-07-17T00:32:19.659Z,98.1
2018-07-17T00:33:19.659Z,98.19
2018-07-17T00:34:19.377Z,98.58
2018-07-17T00:35:19.636Z,97.91
2018-07-17T00:36:19.359Z,98.1
2018-07-17T00:37:19.347Z,98.29
2018-07-17T00:38:19.342Z,97.33
2018-07-17T00:39:19.326Z,97.33
2018-07-17T00:40:19.317Z,97.76
2018-07-17T00:41:19.305Z,97.62
2018-07-17T00:42:19.562Z,97.66
2018-07-17T00:43:19.561Z,97.57
2018-07-17T00:44:19.542Z,96.99
2018-07-17T00:45:19.527Z,96.89
2018-07-17T00:46:19.517Z,95.94
2018-07-17T00:47:19.517Z,96.32
2018-07-17T00:48:19.236Z,95.84
2018-07-17T00:49:19.225Z,94.69
2018-07-17T00:50:19.481Z,94.78
2018-07-17T00:51:19.207Z,95.17
2018-07-17T00:52:19.460Z,94.69
2018-07-17T00:53:19.183Z,94.49
2018-07-17T00:54:19.447Z,94.69
2018-07-17T00:55:19.427Z,94.78
2018-07-17T00:56:19.154Z,95.17
2018-07-17T00:57:19.144Z,95.6
2018-07-17T00:58:19.391Z,95.07
2018-07-17T00:59:19.381Z,95.7
2018-07-17T01:00:19.373Z,95.6
2018-07-17T01:01:19.381Z,95.5
2018-07-17T01:02:19.090Z,95.12
2018-07-17T01:03:19.338Z,95.7
2018-07-17T01:04:19.070Z,94.16
2018-07-17T01:05:19.322Z,94.74
2018-07-17T01:06:19.367Z,95.41
2018-07-17T01:07:19.393Z,94.83
2018-07-17T01:08:19.286Z,94.54
2018-07-17T01:09:19.282Z,93.97
2018-07-17T01:10:19.267Z,93.3
2018-07-17T01:11:19.261Z,93.01
2018-07-17T01:12:19.249Z,93.3
2018-07-17T01:13:19.236Z,93.3
2018-07-17T01:14:19.223Z,93.87
2018-07-17T01:15:18.949Z,93.77
2018-07-17T01:16:18.941Z,93.49
2018-07-17T01:17:19.199Z,94.16
2018-07-17T01:18:19.184Z,94.4
2018-07-17T01:19:19.172Z,93.49
2018-07-17T01:20:18.896Z,93.39
2018-07-17T01:21:18.887Z,92.68
2018-07-17T01:22:19.150Z,93.1
2018-07-17T01:23:18.869Z,92.58
2018-07-17T01:24:19.122Z,92.58
2018-07-17T01:25:18.841Z,92.19
2018-07-17T01:26:19.094Z,91.14
2018-07-17T01:27:19.089Z,91.81
2018-07-17T01:28:19.082Z,92.68
2018-07-17T01:29:18.802Z,92.68
2018-07-17T01:30:18.787Z,92.58
2018-07-17T01:31:18.774Z,92.86
2018-07-17T01:32:19.032Z,92.58
2018-07-17T01:33:18.755Z,92.48
2018-07-17T01:34:19.017Z,92.86
2018-07-17T01:35:18.997Z,92.77
2018-07-17T01:36:18.722Z,93.06
2018-07-17T01:37:18.717Z,93.25
2018-07-17T01:38:18.976Z,93.15
2018-07-17T01:39:18.953Z,92.96
2018-07-17T01:40:18.678Z,92.48
2018-07-17T01:41:18.673Z,92.29
2018-07-17T01:42:18.919Z,91.14
2018-07-17T01:43:18.908Z,91.14
2018-07-17T01:44:18.638Z,91.14
2018-07-17T01:45:18.889Z,91.42
2018-07-17T01:46:18.610Z,91.33
2018-07-17T01:47:18.863Z,91.33
2018-07-17T01:48:18.592Z,91.14
2018-07-17T01:49:18.843Z,91.48
2018-07-17T01:50:18.833Z,90.95
2018-07-17T01:51:18.823Z,90.95
2018-07-17T01:52:18.811Z,90.85
2018-07-17T01:53:18.800Z,90.33
2018-07-17T01:54:18.785Z,90.75
2018-07-17T01:55:18.782Z,91
2018-07-17T01:56:18.773Z,90.04
2018-07-17T01:57:18.754Z,90.23
2018-07-17T01:58:18.483Z,90.9
2018-07-17T01:59:18.726Z,90.81
2018-07-17T02:00:18.861Z,90.85
2018-07-17T02:01:18.711Z,90.81
2018-07-17T02:02:18.698Z,90.81
2018-07-17T02:03:18.691Z,90.9
2018-07-17T02:04:18.674Z,89.94
2018-07-17T02:05:18.398Z,90.08
2018-07-17T02:06:18.650Z,90.71
2018-07-17T02:07:18.637Z,90.71
2018-07-17T02:08:18.367Z,90.04
2018-07-17T02:09:18.616Z,89.75
2018-07-17T02:10:18.603Z,89.94
2018-07-17T02:11:18.593Z,89.85
2018-07-17T02:12:18.586Z,90.23
2018-07-17T02:13:18.576Z,90.23
2018-07-17T02:14:18.558Z,90.33
2018-07-17T02:15:18.552Z,89.56
2018-07-17T02:16:18.273Z,89.47
2018-07-17T02:17:18.527Z,89.18
2018-07-17T02:18:18.515Z,88.6
2018-07-17T02:19:18.244Z,88.6
2018-07-17T02:20:18.233Z,88.22
2018-07-17T02:21:18.215Z,87.84
2018-07-17T02:22:18.472Z,88.02
2018-07-17T02:23:18.193Z,87.55
2018-07-17T02:24:18.185Z,87.35
2018-07-17T02:25:18.440Z,87.16
2018-07-17T02:26:18.170Z,87.93
2018-07-17T02:27:18.423Z,88.12
2018-07-17T02:28:18.141Z,87.45
2018-07-17T02:29:18.391Z,87.55
2018-07-17T02:30:18.381Z,87.35
2018-07-17T02:31:18.105Z,85.82
2018-07-17T02:32:18.363Z,86.88
2018-07-17T02:33:18.352Z,86.21
2018-07-17T02:34:18.339Z,86.35
2018-07-17T02:35:18.333Z,86.35
2018-07-17T02:36:18.317Z,85.3
2018-07-17T02:37:18.354Z,85.39
2018-07-17T02:38:18.293Z,85.58
2018-07-17T02:39:18.276Z,85.49
2018-07-17T02:40:18.265Z,86.07
2018-07-17T02:41:18.256Z,85.68
2018-07-17T02:42:18.369Z,86.07
2018-07-17T02:43:18.230Z,86.25
2018-07-17T02:44:18.223Z,85.58
2018-07-17T02:45:18.212Z,85.78
2018-07-17T02:46:18.232Z,85.39
2018-07-17T02:47:18.188Z,85.01
2018-07-17T02:48:17.927Z,85.11
2018-07-17T02:49:17.912Z,85.39
2018-07-17T02:50:17.896Z,85.01
2018-07-17T02:51:17.880Z,85.21
2018-07-17T02:52:18.149Z,85.39
2018-07-17T02:53:17.853Z,85.39
2018-07-17T02:54:18.114Z,85.11
2018-07-17T02:55:18.092Z,85.11
2018-07-17T02:56:18.084Z,84.91
2018-07-17T02:57:18.068Z,84.53
2018-07-17T02:58:17.796Z,85.3
2018-07-17T02:59:18.046Z,85.01
2018-07-17T03:00:17.769Z,85.01
2018-07-17T03:01:18.034Z,84.72
2018-07-17T03:02:17.757Z,84.34
2018-07-17T03:03:17.734Z,83.76
2018-07-17T03:04:17.988Z,84.25
2018-07-17T03:05:17.975Z,84.63
2018-07-17T03:06:17.975Z,84.34
2018-07-17T03:07:17.953Z,83.86
2018-07-17T03:08:17.938Z,84.72
2018-07-17T03:09:17.663Z,83.86
2018-07-17T03:10:17.917Z,84.72
2018-07-17T03:11:17.643Z,83.95
2018-07-17T03:12:17.632Z,84.82
2018-07-17T03:13:17.888Z,84.53
2018-07-17T03:14:17.880Z,84.72
2018-07-17T03:15:17.860Z,84.72
2018-07-17T03:16:17.584Z,84.15
2018-07-17T03:17:17.851Z,84.34
2018-07-17T03:18:17.839Z,84.44
2018-07-17T03:19:17.827Z,84.72
2018-07-17T03:20:17.806Z,84.91
2018-07-17T03:21:17.527Z,84.25
2018-07-17T03:22:17.781Z,84.05
2018-07-17T03:23:17.770Z,84.15
2018-07-17T03:24:17.749Z,84.34
2018-07-17T03:25:17.748Z,84.63
2018-07-17T03:26:17.743Z,84.15
2018-07-17T03:27:17.722Z,84.72
2018-07-17T03:28:17.717Z,84.05
2018-07-17T03:29:17.701Z,83.19
2018-07-17T03:30:17.684Z,83.09
2018-07-17T03:31:17.410Z,82.52
2018-07-17T03:32:17.661Z,83
2018-07-17T03:33:17.652Z,83.29
2018-07-17T03:34:17.635Z,84.25
2018-07-17T03:35:17.362Z,83.58
2018-07-17T03:36:17.618Z,83.67
2018-07-17T03:37:17.601Z,83.58
2018-07-17T03:38:17.599Z,83.34
2018-07-17T03:39:17.588Z,82.71
2018-07-17T03:40:17.565Z,82.81
2018-07-17T03:41:17.293Z,83
2018-07-17T03:42:17.543Z,82.14
2018-07-17T03:43:17.528Z,81.95
2018-07-17T03:44:17.518Z,81.75
2018-07-17T03:45:17.570Z,81.08
2018-07-17T03:46:17.242Z,81.52
2018-07-17T03:47:17.487Z,81.85
2018-07-17T03:48:17.518Z,82
2018-07-17T03:49:17.460Z,81.85
2018-07-17T03:50:17.448Z,81.37
2018-07-17T03:51:17.478Z,81.66
2018-07-17T03:52:17.159Z,81.46
2018-07-17T03:53:17.153Z,81.66
2018-07-17T03:54:17.137Z,81.75
2018-07-17T03:55:17.128Z,81.75
2018-07-17T03:56:17.377Z,81.95
2018-07-17T03:57:17.106Z,82.32
2018-07-17T03:58:17.360Z,82.32
2018-07-17T03:59:17.345Z,82.71
2018-07-17T04:00:17.335Z,82.9
2018-07-17T04:01:17.323Z,82.9
2018-07-17T04:02:17.311Z,82.71
2018-07-17T04:03:17.292Z,82.52
2018-07-17T04:04:17.319Z,82.52
2018-07-17T04:05:17.007Z,82.71
2018-07-17T04:06:16.996Z,82.71
2018-07-17T04:07:16.985Z,82.71
2018-07-17T04:08:16.974Z,82.9
2018-07-17T04:09:17.224Z,83.09
2018-07-17T04:10:17.216Z,82.14
2018-07-17T04:11:17.200Z,82.14
2018-07-17T04:12:17.196Z,80.99
2018-07-17T04:13:17.198Z,81.18
2018-07-17T04:14:16.902Z,81.27
2018-07-17T04:15:17.157Z,80.6
2018-07-17T04:16:17.143Z,80.79
2018-07-17T04:17:17.134Z,80.22
2018-07-17T04:18:17.119Z,80.22
2018-07-17T04:19:17.107Z,80.6
2018-07-17T04:20:17.101Z,81.27
2018-07-17T04:21:17.087Z,81.18
2018-07-17T04:22:16.809Z,81.27
2018-07-17T04:23:17.062Z,81.27
2018-07-17T04:24:17.052Z,82.04
2018-07-17T04:25:16.771Z,82.52
2018-07-17T04:26:16.759Z,82.32
2018-07-17T04:27:17.014Z,81.95
2018-07-17T04:28:17.003Z,82.42
2018-07-17T04:29:16.987Z,82.52
2018-07-17T04:30:16.979Z,82.32
2018-07-17T04:31:16.968Z,82.9
2018-07-17T04:32:16.697Z,82.81
2018-07-17T04:33:16.682Z,82.71
2018-07-17T04:34:16.666Z,82.81
2018-07-17T04:35:16.925Z,82.71
2018-07-17T04:36:16.904Z,83.38
2018-07-17T04:37:16.896Z,83.19
2018-07-17T04:38:16.997Z,83.71
2018-07-17T04:39:16.871Z,83.14
2018-07-17T04:40:16.863Z,82.71
2018-07-17T04:41:16.849Z,83.23
2018-07-17T04:42:16.840Z,83.81
2018-07-17T04:43:16.563Z,83.04
2018-07-17T04:44:16.908Z,83.33
2018-07-17T04:45:16.805Z,83.71
2018-07-17T04:46:16.534Z,83.71
2018-07-17T04:47:16.775Z,84
2018-07-17T04:48:16.771Z,84
2018-07-17T04:49:16.756Z,84.77
2018-07-17T04:50:16.749Z,83.91
2018-07-17T04:51:16.471Z,84.09
2018-07-17T04:52:16.724Z,84.28
2018-07-17T04:53:16.716Z,84
2018-07-17T04:54:16.444Z,84.38
2018-07-17T04:55:16.689Z,84.67
2018-07-17T04:56:16.680Z,84
2018-07-17T04:57:16.666Z,84.58
2018-07-17T04:58:16.650Z,84.58
2018-07-17T04:59:16.642Z,84.52
2018-07-17T05:00:16.636Z,84
2018-07-17T05:01:16.622Z,84.42
2018-07-17T05:02:16.616Z,84.71
2018-07-17T05:03:16.596Z,84.23
2018-07-17T05:04:16.322Z,84.14
2018-07-17T05:05:16.578Z,84.04
2018-07-17T05:06:16.573Z,84.04
2018-07-17T05:07:16.291Z,84.14
2018-07-17T05:08:16.544Z,83.56
2018-07-17T05:09:16.533Z,84.42
2018-07-17T05:10:16.532Z,84.71
2018-07-17T05:11:16.247Z,84.71
2018-07-17T05:12:16.235Z,84.42
2018-07-17T05:13:16.487Z,84.23
2018-07-17T05:14:16.213Z,84.71
2018-07-17T05:15:16.467Z,85.24
2018-07-17T05:16:16.546Z,84.95
2018-07-17T05:17:16.447Z,84.95
2018-07-17T05:18:16.434Z,85.14
2018-07-17T05:19:16.425Z,85.04
2018-07-17T05:20:16.504Z,85.33
2018-07-17T05:21:16.396Z,86.19
2018-07-17T05:22:16.386Z,85.52
2018-07-17T05:23:16.116Z,86
2018-07-17T05:24:16.367Z,86.68
2018-07-17T05:25:16.354Z,85.91
2018-07-17T05:26:16.344Z,85.91
2018-07-17T05:27:16.332Z,86.29
2018-07-17T05:28:16.323Z,86.24
2018-07-17T05:29:16.311Z,86.62
2018-07-17T05:30:16.039Z,87.39
2018-07-17T05:31:16.293Z,87.49
2018-07-17T05:32:16.276Z,87.39
2018-07-17T05:33:16.010Z,88.06
2018-07-17T05:34:15.993Z,88.64
2018-07-17T05:35:16.029Z,88.93
2018-07-17T05:36:16.305Z,89.31
2018-07-17T05:37:16.229Z,89.26
2018-07-17T05:38:15.948Z,89.07
2018-07-17T05:39:15.943Z,89.26
2018-07-17T05:40:16.199Z,90.03
2018-07-17T05:41:16.183Z,90.51
2018-07-17T05:42:16.169Z,88.39
2018-07-17T05:43:16.278Z,88.92
2018-07-17T05:44:16.186Z,89.4
2018-07-17T05:45:16.141Z,89.3
2018-07-17T05:46:16.133Z,88.24
2018-07-17T05:47:16.117Z,89.01
2018-07-17T05:48:15.847Z,88.44
2018-07-17T05:49:16.099Z,88.15
2018-07-17T05:50:16.093Z,88.87
2018-07-17T05:51:16.079Z,87.04
2018-07-17T05:52:16.077Z,88.77
2018-07-17T05:53:16.054Z,89.83
2018-07-17T05:54:15.785Z,89.35
2018-07-17T05:55:15.780Z,90.12
2018-07-17T05:56:16.029Z,91.41
2018-07-17T05:57:16.020Z,91.13
2018-07-17T05:58:16.010Z,91.41
2018-07-17T05:59:16.006Z,91.41
2018-07-17T06:00:15.990Z,91.51
2018-07-17T06:01:16.178Z,92.47
2018-07-17T06:02:15.706Z,92.47
2018-07-17T06:03:16.128Z,93.77
2018-07-17T06:04:15.691Z,93.67
2018-07-17T06:05:15.677Z,95.02
2018-07-17T06:06:15.936Z,95.6
2018-07-17T06:07:15.922Z,98.29
2018-07-17T06:08:15.656Z,97.62
2018-07-17T06:09:15.643Z,97.14
2018-07-17T06:10:15.641Z,97.76
2018-07-17T06:11:15.889Z,99.69
2018-07-17T06:12:15.607Z,99.21
2018-07-17T06:13:15.600Z,99.3
2018-07-17T06:14:15.855Z,99.59
2018-07-17T06:15:15.584Z,99.99
2018-07-17T06:16:15.857Z,99.99
2018-07-17T06:17:15.825Z,99.99
2018-07-17T06:18:15.600Z,99.99
2018-07-17T06:19:15.818Z,99.99
2018-07-17T06:20:15.537Z,99.99
2018-07-17T06:21:15.792Z,99.99
2018-07-17T06:22:16.043Z,99.99
2018-07-17T06:23:15.513Z,99.99
2018-07-17T06:24:15.776Z,99.99
2018-07-17T06:25:15.857Z,99.99
2018-07-17T06:26:15.747Z,99.99
2018-07-17T06:27:15.741Z,99.99
2018-07-17T06:28:15.463Z,99.99
2018-07-17T06:29:15.461Z,99.99
2018-07-17T06:30:15.709Z,99.99
2018-07-17T06:31:15.700Z,99.99
2018-07-17T06:32:15.694Z,99.99
2018-07-17T06:33:15.684Z,99.99
2018-07-17T06:34:15.411Z,99.99
2018-07-17T06:35:15.402Z,99.99
2018-07-17T06:36:15.663Z,99.99
2018-07-17T06:37:15.649Z,99.99
2018-07-17T06:38:15.645Z,99.99
2018-07-17T06:39:15.641Z,99.99
2018-07-17T06:40:15.619Z,99.99
2018-07-17T06:41:15.618Z,99.99
2018-07-17T06:42:15.609Z,99.99
2018-07-17T06:43:15.595Z,99.99
2018-07-17T06:44:15.329Z,99.99
2018-07-17T06:45:15.317Z,99.99
2018-07-17T06:46:15.573Z,99.99
2018-07-17T06:47:15.564Z,99.99
2018-07-17T06:48:15.289Z,99.99
2018-07-17T06:49:15.548Z,99.99
2018-07-17T06:50:15.744Z,99.99
2018-07-17T06:51:15.262Z,99.99
2018-07-17T06:52:15.522Z,99.99
2018-07-17T06:53:15.249Z,99.99
2018-07-17T06:54:15.240Z,99.99
2018-07-17T06:55:15.495Z,99.99
2018-07-17T06:56:15.222Z,99.99
2018-07-17T06:57:15.491Z,99.99
2018-07-17T06:58:15.471Z,99.99
2018-07-17T06:59:15.465Z,99.99
2018-07-17T07:00:15.192Z,99.99
2018-07-17T07:01:15.180Z,99.99
2018-07-17T07:02:15.170Z,99.99
2018-07-17T07:03:15.424Z,99.99
2018-07-17T07:04:15.154Z,99.99
2018-07-17T07:05:15.520Z,99.99
2018-07-17T07:06:15.141Z,99.99
2018-07-17T07:07:15.400Z,99.99
2018-07-17T07:08:15.384Z,99.99
2018-07-17T07:09:15.110Z,99.99
2018-07-17T07:10:15.371Z,99.99
2018-07-17T07:11:15.467Z,99.99
2018-07-17T07:12:15.091Z,99.99
2018-07-17T07:13:15.078Z,99.99
2018-07-17T07:14:15.070Z,99.99
2018-07-17T07:15:15.332Z,99.99
2018-07-17T07:16:15.322Z,99.99
2018-07-17T07:17:15.053Z,99.99
2018-07-17T07:18:15.309Z,99.99
2018-07-17T07:19:15.040Z,99.99
2018-07-17T07:20:15.292Z,99.99
2018-07-17T07:21:15.295Z,99.99
2018-07-17T07:22:15.273Z,99.99
2018-07-17T07:23:15.043Z,99.99
2018-07-17T07:24:15.255Z,99.99
2018-07-17T07:25:15.252Z,99.99
2018-07-17T07:26:14.979Z,99.99
2018-07-17T07:27:15.231Z,99.99
2018-07-17T07:28:15.226Z,99.99
2018-07-17T07:29:14.968Z,99.99
2018-07-17T07:30:15.213Z,99.99
2018-07-17T07:31:15.205Z,99.99
2018-07-17T07:32:14.932Z,99.99
2018-07-17T07:33:15.188Z,99.99
2018-07-17T07:34:14.917Z,99.99
2018-07-17T07:35:15.172Z,99.69
2018-07-17T07:36:15.168Z,99.99
2018-07-17T07:37:14.932Z,96.84
2018-07-17T07:38:15.159Z,85.57
2018-07-17T07:39:14.878Z,79
2018-07-17T07:40:15.137Z,77.14
2018-07-17T07:41:15.187Z,73.18
2018-07-17T07:42:14.868Z,68.48
2018-07-17T07:43:14.863Z,67.35
2018-07-17T07:44:14.853Z,63.42
2018-07-17T07:45:15.112Z,63.35
2018-07-17T07:46:15.111Z,61.63
2018-07-17T07:47:15.101Z,60.78
2018-07-17T07:48:14.838Z,59.05
2018-07-17T07:49:15.313Z,59.38
2018-07-17T07:50:15.094Z,58.03
2018-07-17T07:51:15.099Z,57.97
2018-07-17T07:52:15.091Z,56.62
2018-07-17T07:53:14.824Z,56.36
2018-07-17T07:54:14.817Z,54.23
2018-07-17T07:55:15.083Z,53.74
2018-07-17T07:56:15.085Z,52.67
2018-07-17T07:57:14.812Z,52.67
2018-07-17T07:58:15.085Z,53.42
2018-07-17T07:59:15.144Z,53.16
2018-07-17T08:00:14.813Z,52.76
2018-07-17T08:01:15.274Z,52.79
2018-07-17T08:02:15.072Z,51.64
2018-07-17T08:03:15.072Z,52.72
2018-07-17T08:04:14.802Z,51.76
2018-07-17T08:05:15.068Z,50.78
2018-07-17T08:06:15.067Z,51.79
2018-07-17T08:07:14.800Z,50.24
2018-07-17T08:08:15.065Z,49.65
2018-07-17T08:09:14.802Z,50.44
2018-07-17T08:10:15.076Z,50.34
2018-07-17T08:11:15.064Z,49.68
2018-07-17T08:12:15.311Z,50.04
2018-07-17T08:13:15.063Z,49.48
2018-07-17T08:14:15.068Z,49.65
2018-07-17T08:15:14.804Z,50.14
2018-07-17T08:16:14.801Z,48.4
2018-07-17T08:17:15.065Z,49.77
2018-07-17T08:18:15.070Z,49.16
2018-07-17T08:19:15.071Z,49.19
2018-07-17T08:20:15.076Z,49.97
2018-07-17T08:21:14.810Z,49.01
2018-07-17T08:22:15.078Z,48.65
2018-07-17T08:23:14.811Z,48.25
2018-07-17T08:24:15.129Z,47.86
2018-07-17T08:25:14.870Z,47.66
2018-07-17T08:26:15.079Z,48.72
2018-07-17T08:27:14.818Z,48.43
2018-07-17T08:28:15.082Z,48.23
2018-07-17T08:29:15.089Z,49.58
2018-07-17T08:30:14.823Z,50.19
2018-07-17T08:31:14.818Z,47.76
2018-07-17T08:32:15.087Z,48.55
2018-07-17T08:33:15.090Z,48.72
2018-07-17T08:34:14.825Z,49.6
2018-07-17T08:35:14.820Z,49.08
2018-07-17T08:36:15.092Z,50.04
2018-07-17T08:37:15.094Z,50.34
2018-07-17T08:38:15.084Z,50.14
2018-07-17T08:39:14.820Z,50.24
2018-07-17T08:40:15.101Z,51.29
2018-07-17T08:41:14.815Z,49.65
2018-07-17T08:42:15.084Z,50.44
2018-07-17T08:43:15.156Z,50.54
2018-07-17T08:44:15.080Z,50.16
2018-07-17T08:45:15.080Z,51.12
2018-07-17T08:46:15.076Z,51
2018-07-17T08:47:15.077Z,52.52
2018-07-17T08:48:15.074Z,53.67
2018-07-17T08:49:14.831Z,54.91
2018-07-17T08:50:15.072Z,55.45
2018-07-17T08:51:14.803Z,56.2
2018-07-17T08:52:14.806Z,56.96
2018-07-17T08:53:15.065Z,57.13
2018-07-17T08:54:14.799Z,57.91
2018-07-17T08:55:15.066Z,59.54
2018-07-17T08:56:14.798Z,59.05
2018-07-17T08:57:15.109Z,60.78
2018-07-17T08:58:15.057Z,60.88
2018-07-17T08:59:15.054Z,61.33
2018-07-17T09:00:15.049Z,61.53
2018-07-17T09:01:14.782Z,62.89
2018-07-17T09:02:14.787Z,61.11
2018-07-17T09:03:14.773Z,61.21
2018-07-17T09:04:15.037Z,63.22
2018-07-17T09:05:14.776Z,64.1
2018-07-17T09:06:15.039Z,62.93
2018-07-17T09:07:15.097Z,64
2018-07-17T09:08:15.032Z,63.02
2018-07-17T09:09:15.032Z,64.03
2018-07-17T09:10:15.023Z,61.72
2018-07-17T09:11:15.023Z,60.03
2018-07-17T09:12:15.026Z,58.13
2018-07-17T09:13:14.847Z,57.64
2018-07-17T09:14:14.757Z,59.47
2018-07-17T09:15:15.021Z,58.69
2018-07-17T09:16:14.750Z,58.86
2018-07-17T09:17:15.023Z,57.88
2018-07-17T09:18:15.019Z,59.31
2018-07-17T09:19:14.748Z,59.8
2018-07-17T09:20:15.010Z,60.39
2018-07-17T09:21:15.010Z,60.26
2018-07-17T09:22:14.823Z,60.16
2018-07-17T09:23:15.013Z,60.46
2018-07-17T09:24:14.737Z,60.33
2018-07-17T09:25:14.998Z,61.5
2018-07-17T09:26:14.732Z,61.18
2018-07-17T09:27:14.994Z,60.69
2018-07-17T09:28:14.756Z,60.98
2018-07-17T09:29:15.005Z,59.84
2018-07-17T09:30:15.001Z,60.03
2018-07-17T09:31:14.990Z,59.74
2018-07-17T09:32:14.727Z,59.31
2018-07-17T09:33:14.989Z,59.05
2018-07-17T09:34:14.987Z,57.98
2018-07-17T09:35:14.988Z,57.46
2018-07-17T09:36:14.977Z,58.04
2018-07-17T09:37:14.710Z,57.46
2018-07-17T09:38:14.712Z,58.22
2018-07-17T09:39:14.975Z,59.97
2018-07-17T09:40:14.970Z,60.16
2018-07-17T09:41:14.970Z,59.19
2018-07-17T09:42:14.969Z,59.06
2018-07-17T09:43:14.966Z,60.88
2018-07-17T09:44:15.067Z,60.69
2018-07-17T09:45:14.699Z,60.39
2018-07-17T09:46:14.695Z,61.08
2018-07-17T09:47:14.957Z,60.27
2018-07-17T09:48:14.684Z,60.59
2018-07-17T09:49:14.688Z,61.37
2018-07-17T09:50:14.682Z,61.18
2018-07-17T09:51:14.942Z,60.98
2018-07-17T09:52:14.948Z,61.18
2018-07-17T09:53:14.946Z,60
2018-07-17T09:54:14.697Z,59.91
2018-07-17T09:55:14.668Z,60.88
2018-07-17T09:56:14.933Z,60.59
2018-07-17T09:57:14.931Z,60.39
2018-07-17T09:58:14.929Z,61.37
2018-07-17T09:59:14.658Z,60.69
2018-07-17T10:00:14.657Z,59.84
2018-07-17T10:01:15.122Z,60.72
2018-07-17T10:02:14.648Z,59.55
2018-07-17T10:03:14.648Z,58.18
2018-07-17T10:04:14.912Z,57.6
2018-07-17T10:05:14.909Z,58.97
2018-07-17T10:06:14.982Z,59.09
2018-07-17T10:07:14.908Z,58.7
2018-07-17T10:08:14.637Z,57.34
2018-07-17T10:09:14.898Z,58.7
2018-07-17T10:10:14.895Z,59.19
2018-07-17T10:11:14.893Z,58.99
2018-07-17T10:12:14.893Z,58.04
2018-07-17T10:13:14.890Z,58.6
2018-07-17T10:14:14.887Z,59.19
2018-07-17T10:15:14.882Z,58.12
2018-07-17T10:16:14.881Z,57.34
2018-07-17T10:17:14.880Z,59.09
2018-07-17T10:18:14.618Z,58.67
2018-07-17T10:19:14.869Z,60.23
2018-07-17T10:20:14.618Z,60.06
2018-07-17T10:21:14.605Z,58.87
2018-07-17T10:22:14.604Z,59.38
2018-07-17T10:23:14.597Z,59.09
2018-07-17T10:24:14.597Z,58.5
2018-07-17T10:25:14.618Z,57.46
2018-07-17T10:26:14.985Z,57.46
2018-07-17T10:27:14.857Z,55.9
2018-07-17T10:28:14.854Z,57.36
2018-07-17T10:29:14.885Z,56.12
2018-07-17T10:30:14.856Z,55.83
2018-07-17T10:31:14.851Z,52.93
2018-07-17T10:32:14.677Z,52.17
2018-07-17T10:33:14.584Z,52.88
2018-07-17T10:34:14.849Z,51.44
2018-07-17T10:35:14.848Z,52.15
2018-07-17T10:36:14.581Z,50.51
2018-07-17T10:37:14.854Z,49.95
2018-07-17T10:38:14.853Z,50.17
2018-07-17T10:39:14.851Z,45.61
2018-07-17T10:40:14.589Z,45.9
2018-07-17T10:41:14.595Z,46.31
2018-07-17T10:42:14.592Z,44.37
2018-07-17T10:43:14.859Z,45.34
2018-07-17T10:44:14.865Z,44.08
2018-07-17T10:45:14.868Z,44.96
2018-07-17T10:46:14.867Z,44.1
2018-07-17T10:47:14.611Z,41.56
2018-07-17T10:48:14.879Z,42.94
2018-07-17T10:49:14.614Z,41.98
2018-07-17T10:50:14.890Z,43.08
2018-07-17T10:51:14.888Z,42.79
2018-07-17T10:52:14.633Z,41.24
2018-07-17T10:53:14.631Z,41.24
2018-07-17T10:54:14.640Z,42.47
2018-07-17T10:55:14.654Z,43.18
2018-07-17T10:56:14.930Z,42.4
2018-07-17T10:57:14.659Z,42.69
2018-07-17T10:58:14.927Z,42.85
2018-07-17T10:59:14.661Z,43.06
2018-07-17T11:00:14.664Z,42.69
2018-07-17T11:01:14.943Z,43.08
2018-07-17T11:02:14.943Z,42.32
2018-07-17T11:03:14.686Z,41.55
2018-07-17T11:04:14.956Z,41.86
2018-07-17T11:05:14.966Z,40.69
2018-07-17T11:06:14.968Z,41.86
2018-07-17T11:07:14.970Z,41.27
2018-07-17T11:08:14.760Z,42.16
2018-07-17T11:09:14.978Z,41.45
2018-07-17T11:10:14.989Z,42.71
2018-07-17T11:11:14.721Z,42.32
2018-07-17T11:12:14.997Z,42.41
2018-07-17T11:13:14.731Z,43.46
2018-07-17T11:14:15.008Z,44.3
2018-07-17T11:15:14.744Z,43.83
2018-07-17T11:16:14.758Z,44.15
2018-07-17T11:17:15.017Z,43.85
2018-07-17T11:18:15.022Z,44.24
2018-07-17T11:19:14.764Z,43.99
2018-07-17T11:20:15.036Z,43.89
2018-07-17T11:21:14.783Z,42.44
2018-07-17T11:22:15.045Z,42.63
2018-07-17T11:23:15.049Z,43.82
2018-07-17T11:24:14.789Z,44.26
2018-07-17T11:25:15.064Z,44.64
2018-07-17T11:26:15.069Z,44.15
2018-07-17T11:27:14.808Z,44.17
2018-07-17T11:28:15.075Z,44.34
2018-07-17T11:29:15.084Z,44.05
2018-07-17T11:30:15.103Z,46.01
2018-07-17T11:31:14.828Z,44.54
2018-07-17T11:32:14.831Z,44.56
2018-07-17T11:33:15.103Z,44.17
2018-07-17T11:34:15.113Z,45.17
2018-07-17T11:35:15.113Z,44.88
2018-07-17T11:36:14.852Z,44.78
2018-07-17T11:37:15.127Z,44.31
2018-07-17T11:38:15.131Z,44.11
2018-07-17T11:39:15.134Z,44.58
2018-07-17T11:40:14.873Z,44.95
2018-07-17T11:41:14.879Z,44.56
2018-07-17T11:42:15.146Z,45.13
2018-07-17T11:43:15.159Z,45.01
2018-07-17T11:44:14.894Z,44.81
2018-07-17T11:45:14.898Z,46.09
2018-07-17T11:46:14.905Z,46.73
2018-07-17T11:47:15.177Z,48.01
2018-07-17T11:48:14.926Z,47.15
2018-07-17T11:49:15.181Z,47.15
2018-07-17T11:50:15.194Z,47.19
2018-07-17T11:51:15.197Z,46.43
2018-07-17T11:52:15.199Z,45.17
2018-07-17T11:53:15.372Z,45.07
2018-07-17T11:54:15.220Z,45.17
2018-07-17T11:55:14.947Z,45.09
2018-07-17T11:56:15.219Z,44.13
2018-07-17T11:57:15.227Z,43.86
2018-07-17T11:58:15.228Z,42.99
2018-07-17T11:59:15.027Z,41.81
2018-07-17T12:00:15.253Z,42.2
2018-07-17T12:01:15.448Z,42.6
2018-07-17T12:02:15.252Z,41.81
2018-07-17T12:03:15.258Z,42.58
2018-07-17T12:04:15.262Z,41.99
2018-07-17T12:05:15.010Z,41
2018-07-17T12:06:15.272Z,41.31
2018-07-17T12:07:15.285Z,41.51
2018-07-17T12:08:15.268Z,41.91
2018-07-17T12:09:15.289Z,42.69
2018-07-17T12:10:15.304Z,42.89
2018-07-17T12:11:15.040Z,41.93
2018-07-17T12:12:15.309Z,42
2018-07-17T12:13:15.320Z,41.24
2018-07-17T12:14:15.332Z,41.43
2018-07-17T12:15:15.343Z,41.14
2018-07-17T12:16:15.073Z,41.14
2018-07-17T12:17:15.344Z,40.55
2018-07-17T12:18:15.345Z,41.33
2018-07-17T12:19:15.090Z,41.73
2018-07-17T12:20:15.572Z,41.06
2018-07-17T12:21:15.370Z,40.96
2018-07-17T12:22:15.378Z,40.86
2018-07-17T12:23:15.118Z,40.86
2018-07-17T12:24:15.385Z,41.53
2018-07-17T12:25:15.396Z,41.38
2018-07-17T12:26:15.141Z,41.67
2018-07-17T12:27:15.151Z,42.07
2018-07-17T12:28:15.157Z,41.17
2018-07-17T12:29:15.419Z,41.09
2018-07-17T12:30:15.171Z,41.77
2018-07-17T12:31:15.433Z,41.47
2018-07-17T12:32:15.438Z,41.17
2018-07-17T12:33:15.186Z,42.08
2018-07-17T12:34:15.189Z,40.13
2018-07-17T12:35:15.193Z,40.25
2018-07-17T12:36:15.465Z,40.15
2018-07-17T12:37:15.230Z,39.65
2018-07-17T12:38:15.478Z,39.2
2018-07-17T12:39:15.481Z,38.9
2018-07-17T12:40:15.232Z,39.5
2018-07-17T12:41:15.499Z,38.53
2018-07-17T12:42:15.510Z,38.23
2018-07-17T12:43:15.517Z,38.41
2018-07-17T12:44:15.603Z,39.11
2018-07-17T12:45:15.526Z,39.11
2018-07-17T12:46:15.269Z,38.41
2018-07-17T12:47:15.278Z,38.02
2018-07-17T12:48:15.546Z,39.22
2018-07-17T12:49:15.292Z,37.24
2018-07-17T12:50:15.567Z,37.94
2018-07-17T12:51:15.303Z,37.8
2018-07-17T12:52:15.589Z,37.3
2018-07-17T12:53:15.389Z,37.7
2018-07-17T12:54:15.588Z,38.1
2018-07-17T12:55:15.333Z,37.59